No particular awareness of the weather is required.    There are no Weather-warnings


Meteo18 Weather Cam more information Meteo18 Weather Cam


Thunder radar more information blitzortung!


Rain radar more information rain snow radar


Visit our other weather sites:

Template documentation
and downloads

And another site



Weather Underground History page Text

Daily Summary for January 7, 2017 Units:  Both    English   Metric
« Previous Day
Next Day »
Daily Weekly Monthly Yearly Custom
  High: Low: Average:
Temperature: TemperatureC °F /  -17.8 °C -8.2 °F /  -22.3 °C -3.5 °F /  -19.7 °C
Dew Point: DewpointC °F /  -17.8 °C -9.3 °F /  -22.9 °C -5.4 °F /  -20.8 °C
Humidity: Humidity % 69 % 86 %
Wind Speed: WindSpeedKMH mph /  0 km/h - 1.2 mph /  1.9 km/h
Wind Gust: WindSpeedGustKMH mph /  0 km/h - -
Wind:- - SW
Pressure: PressurehPa in /  0 hPa 1033.7 in /  35001.1 hPa -
Precipitation: 0.0 in /  0 mm    
Historical Graphs
 
 
Tabular Data for January 7, 2017
Time Temperature Dew Point Pressure Wind Wind Speed Wind Gust Humidity Rainfall Rate (Hourly)
TemperatureC °F /  -17.8 °C DewpointC °F /  -17.8 °C PressurehPa in /  0 hPa Calm     Humidity % HourlyPrecipMM in /  0 mm
00:07 -4.7 °F /  -20.4 °C -6.7 °F /  -21.5 °C 1037.1 in /  35116.2 hPa NW 1.6 mph /  2.6 km/h 3.2 mph /  5.1 km/h 86 % 0.0 in /  0 mm
00:17 -4.7 °F /  -20.4 °C -6.7 °F /  -21.5 °C 1037.1 in /  35116.2 hPa NW 1.6 mph /  2.6 km/h 4.8 mph /  7.7 km/h 86 % 0.0 in /  0 mm
00:22 -4.7 °F /  -20.4 °C -6.8 °F /  -21.6 °C 1036.8 in /  35106 hPa Calm   4.8 mph /  7.7 km/h 85 % 0.0 in /  0 mm
00:27 -4.8 °F /  -20.4 °C -6.8 °F /  -21.6 °C 1036.8 in /  35106 hPa Calm   4.8 mph /  7.7 km/h 86 % 0.0 in /  0 mm
00:32 -4.9 °F /  -20.5 °C -6.9 °F /  -21.6 °C 1036.8 in /  35106 hPa NNE 1.6 mph /  2.6 km/h 3.2 mph /  5.1 km/h 86 % 0.0 in /  0 mm
00:37 -4.9 °F /  -20.5 °C -6.9 °F /  -21.6 °C 1036.8 in /  35106 hPa Calm   1.6 mph /  2.6 km/h 86 % 0.0 in /  0 mm
00:47 -4.9 °F /  -20.5 °C -6.9 °F /  -21.6 °C 1036.8 in /  35106 hPa Calm   1.6 mph /  2.6 km/h 86 % 0.0 in /  0 mm
00:52 -4.9 °F /  -20.5 °C -6.9 °F /  -21.6 °C 1036.8 in /  35106 hPa Calm   1.6 mph /  2.6 km/h 86 % 0.0 in /  0 mm
00:57 -4.9 °F /  -20.5 °C -6.9 °F /  -21.6 °C 1036.8 in /  35106 hPa North 1.6 mph /  2.6 km/h 3.2 mph /  5.1 km/h 86 % 0.0 in /  0 mm
01:02 -5.0 °F /  -20.6 °C -7.0 °F /  -21.7 °C 1036.8 in /  35106 hPa NNE 3.2 mph /  5.1 km/h 3.2 mph /  5.1 km/h 86 % 0.0 in /  0 mm
01:07 -5.1 °F /  -20.6 °C -7.1 °F /  -21.7 °C 1036.8 in /  35106 hPa Calm   3.2 mph /  5.1 km/h 86 % 0.0 in /  0 mm
01:12 -5.3 °F /  -20.7 °C -7.1 °F /  -21.7 °C 1036.8 in /  35106 hPa Calm   3.2 mph /  5.1 km/h 87 % 0.0 in /  0 mm
01:17 -5.3 °F /  -20.7 °C -7.1 °F /  -21.7 °C 1036.8 in /  35106 hPa Calm   3.2 mph /  5.1 km/h 87 % 0.0 in /  0 mm
01:22 -5.3 °F /  -20.7 °C -7.1 °F /  -21.7 °C 1036.8 in /  35106 hPa Calm   3.2 mph /  5.1 km/h 87 % 0.0 in /  0 mm
01:27 -5.3 °F /  -20.7 °C -7.1 °F /  -21.7 °C 1036.8 in /  35106 hPa Calm   1.6 mph /  2.6 km/h 87 % 0.0 in /  0 mm
01:32 -5.4 °F /  -20.8 °C -7.4 °F /  -21.9 °C 1036.5 in /  35095.9 hPa Calm   1.6 mph /  2.6 km/h 86 % 0.0 in /  0 mm
01:37 -5.6 °F /  -20.9 °C -7.4 °F /  -21.9 °C 1036.8 in /  35106 hPa Calm   1.6 mph /  2.6 km/h 87 % 0.0 in /  0 mm
01:42 -5.6 °F /  -20.9 °C -7.4 °F /  -21.9 °C 1036.5 in /  35095.9 hPa Calm   1.6 mph /  2.6 km/h 87 % 0.0 in /  0 mm
01:47 -5.5 °F /  -20.8 °C -7.3 °F /  -21.8 °C 1036.8 in /  35106 hPa Calm     87 % 0.0 in /  0 mm
01:52 -5.6 °F /  -20.9 °C -7.4 °F /  -21.9 °C 1036.8 in /  35106 hPa Calm     87 % 0.0 in /  0 mm
01:57 -5.8 °F /  -21 °C -7.6 °F /  -22 °C 1036.8 in /  35106 hPa Calm     87 % 0.0 in /  0 mm
02:02 -5.8 °F /  -21 °C -7.5 °F /  -21.9 °C 1036.8 in /  35106 hPa Calm     88 % 0.0 in /  0 mm
02:12 -5.7 °F /  -20.9 °C -7.4 °F /  -21.9 °C 1036.8 in /  35106 hPa Calm   1.6 mph /  2.6 km/h 88 % 0.0 in /  0 mm
02:17 -5.6 °F /  -20.9 °C -7.4 °F /  -21.9 °C 1036.8 in /  35106 hPa Calm   1.6 mph /  2.6 km/h 87 % 0.0 in /  0 mm
02:22 -5.8 °F /  -21 °C -7.5 °F /  -21.9 °C 1036.8 in /  35106 hPa Calm   1.6 mph /  2.6 km/h 88 % 0.0 in /  0 mm
02:27 -5.8 °F /  -21 °C -7.5 °F /  -21.9 °C 1036.8 in /  35106 hPa Calm   1.6 mph /  2.6 km/h 88 % 0.0 in /  0 mm
02:37 -5.8 °F /  -21 °C -7.5 °F /  -21.9 °C 1036.8 in /  35106 hPa Calm   1.6 mph /  2.6 km/h 88 % 0.0 in /  0 mm
02:42 -5.7 °F /  -20.9 °C -7.4 °F /  -21.9 °C 1036.5 in /  35095.9 hPa Calm   1.6 mph /  2.6 km/h 88 % 0.0 in /  0 mm
02:47 -5.9 °F /  -21.1 °C -7.7 °F /  -22.1 °C 1036.5 in /  35095.9 hPa Calm   1.6 mph /  2.6 km/h 87 % 0.0 in /  0 mm
02:52 -6.1 °F /  -21.2 °C -7.8 °F /  -22.1 °C 1036.5 in /  35095.9 hPa Calm   1.6 mph /  2.6 km/h 88 % 0.0 in /  0 mm
02:57 -6.1 °F /  -21.2 °C -7.6 °F /  -22 °C 1036.5 in /  35095.9 hPa Calm   1.6 mph /  2.6 km/h 89 % 0.0 in /  0 mm
03:02 -6.1 °F /  -21.2 °C -7.6 °F /  -22 °C 1036.8 in /  35106 hPa Calm   1.6 mph /  2.6 km/h 89 % 0.0 in /  0 mm
03:07 -6.2 °F /  -21.2 °C -7.7 °F /  -22.1 °C 1036.8 in /  35106 hPa Calm   1.6 mph /  2.6 km/h 89 % 0.0 in /  0 mm
03:12 -6.2 °F /  -21.2 °C -7.7 °F /  -22.1 °C 1036.8 in /  35106 hPa Calm     89 % 0.0 in /  0 mm
03:17 -6.2 °F /  -21.2 °C -7.7 °F /  -22.1 °C 1036.8 in /  35106 hPa Calm   1.6 mph /  2.6 km/h 89 % 0.0 in /  0 mm
03:22 -6.2 °F /  -21.2 °C -7.7 °F /  -22.1 °C 1036.8 in /  35106 hPa Calm   1.6 mph /  2.6 km/h 89 % 0.0 in /  0 mm
03:27 -6.2 °F /  -21.2 °C -7.7 °F /  -22.1 °C 1036.8 in /  35106 hPa Calm   1.6 mph /  2.6 km/h 89 % 0.0 in /  0 mm
03:32 -6.2 °F /  -21.2 °C -7.7 °F /  -22.1 °C 1036.5 in /  35095.9 hPa Calm   1.6 mph /  2.6 km/h 89 % 0.0 in /  0 mm
03:42 -6.1 °F /  -21.2 °C -7.6 °F /  -22 °C 1036.5 in /  35095.9 hPa Calm   1.6 mph /  2.6 km/h 89 % 0.0 in /  0 mm
03:47 -6.1 °F /  -21.2 °C -7.6 °F /  -22 °C 1036.5 in /  35095.9 hPa Calm   1.6 mph /  2.6 km/h 89 % 0.0 in /  0 mm
03:52 -6.1 °F /  -21.2 °C -7.8 °F /  -22.1 °C 1036.5 in /  35095.9 hPa Calm   1.6 mph /  2.6 km/h 88 % 0.0 in /  0 mm
03:57 -6.2 °F /  -21.2 °C -7.9 °F /  -22.2 °C 1036.5 in /  35095.9 hPa Calm     88 % 0.0 in /  0 mm
04:02 -6.4 °F /  -21.3 °C -7.9 °F /  -22.2 °C 1036.5 in /  35095.9 hPa Calm   1.6 mph /  2.6 km/h 89 % 0.0 in /  0 mm
04:07 -6.6 °F /  -21.4 °C -8.1 °F /  -22.3 °C 1036.5 in /  35095.9 hPa Calm   1.6 mph /  2.6 km/h 89 % 0.0 in /  0 mm
04:12 -6.7 °F /  -21.5 °C -8.1 °F /  -22.3 °C 1036.5 in /  35095.9 hPa Calm   1.6 mph /  2.6 km/h 90 % 0.0 in /  0 mm
04:17 -6.8 °F /  -21.6 °C -8.2 °F /  -22.3 °C 1036.5 in /  35095.9 hPa WNW 1.6 mph /  2.6 km/h 1.6 mph /  2.6 km/h 90 % 0.0 in /  0 mm
04:22 -7.0 °F /  -21.7 °C -8.2 °F /  -22.3 °C 1036.8 in /  35106 hPa Calm   1.6 mph /  2.6 km/h 91 % 0.0 in /  0 mm
04:27 -6.9 °F /  -21.6 °C -8.1 °F /  -22.3 °C 1036.8 in /  35106 hPa Calm   1.6 mph /  2.6 km/h 91 % 0.0 in /  0 mm
04:32 -6.9 °F /  -21.6 °C -8.1 °F /  -22.3 °C 1036.8 in /  35106 hPa Calm   1.6 mph /  2.6 km/h 91 % 0.0 in /  0 mm
04:37 -6.8 °F /  -21.6 °C -8.2 °F /  -22.3 °C 1036.5 in /  35095.9 hPa Calm     90 % 0.0 in /  0 mm
04:42 -6.9 °F /  -21.6 °C -8.3 °F /  -22.4 °C 1036.5 in /  35095.9 hPa Calm     90 % 0.0 in /  0 mm
04:47 -7.2 °F /  -21.8 °C -8.6 °F /  -22.6 °C 1036.5 in /  35095.9 hPa Calm     90 % 0.0 in /  0 mm
04:52 -7.1 °F /  -21.7 °C -8.2 °F /  -22.3 °C 1036.5 in /  35095.9 hPa Calm   1.6 mph /  2.6 km/h 92 % 0.0 in /  0 mm
05:02 -7.0 °F /  -21.7 °C -8.2 °F /  -22.3 °C 1036.5 in /  35095.9 hPa WNW 1.6 mph /  2.6 km/h 1.6 mph /  2.6 km/h 91 % 0.0 in /  0 mm
05:07 -7.2 °F /  -21.8 °C -8.6 °F /  -22.6 °C 1036.5 in /  35095.9 hPa Calm   1.6 mph /  2.6 km/h 90 % 0.0 in /  0 mm
05:12 -7.5 °F /  -21.9 °C -8.7 °F /  -22.6 °C 1036.5 in /  35095.9 hPa Calm   1.6 mph /  2.6 km/h 91 % 0.0 in /  0 mm
05:17 -7.4 °F /  -21.9 °C -8.5 °F /  -22.5 °C 1036.5 in /  35095.9 hPa Calm   1.6 mph /  2.6 km/h 92 % 0.0 in /  0 mm
05:22 -7.2 °F /  -21.8 °C -8.3 °F /  -22.4 °C 1036.5 in /  35095.9 hPa Calm     92 % 0.0 in /  0 mm
05:27 -7.4 °F /  -21.9 °C -8.6 °F /  -22.6 °C 1036.5 in /  35095.9 hPa Calm     91 % 0.0 in /  0 mm
05:32 -7.3 °F /  -21.8 °C -8.4 °F /  -22.4 °C 1036.5 in /  35095.9 hPa Calm     92 % 0.0 in /  0 mm
05:37 -7.2 °F /  -21.8 °C -8.3 °F /  -22.4 °C 1036.5 in /  35095.9 hPa Calm     92 % 0.0 in /  0 mm
05:42 -7.1 °F /  -21.7 °C -8.2 °F /  -22.3 °C 1036.5 in /  35095.9 hPa Calm     92 % 0.0 in /  0 mm
05:52 -7.1 °F /  -21.7 °C -8.3 °F /  -22.4 °C 1036.5 in /  35095.9 hPa Calm     91 % 0.0 in /  0 mm
05:57 -7.1 °F /  -21.7 °C -8.3 °F /  -22.4 °C 1036.5 in /  35095.9 hPa Calm     91 % 0.0 in /  0 mm
06:02 -7.2 °F /  -21.8 °C -8.4 °F /  -22.4 °C 1036.5 in /  35095.9 hPa Calm     91 % 0.0 in /  0 mm
06:07 -7.2 °F /  -21.8 °C -8.3 °F /  -22.4 °C 1036.5 in /  35095.9 hPa Calm     92 % 0.0 in /  0 mm
06:12 -7.2 °F /  -21.8 °C -8.3 °F /  -22.4 °C 1036.5 in /  35095.9 hPa Calm     92 % 0.0 in /  0 mm
06:17 -7.3 °F /  -21.8 °C -8.4 °F /  -22.4 °C 1036.5 in /  35095.9 hPa Calm     92 % 0.0 in /  0 mm
06:22 -7.3 °F /  -21.8 °C -8.4 °F /  -22.4 °C 1036.1 in /  35082.3 hPa Calm     92 % 0.0 in /  0 mm
06:32 -7.5 °F /  -21.9 °C -8.6 °F /  -22.6 °C 1036.5 in /  35095.9 hPa Calm     92 % 0.0 in /  0 mm
06:42 -7.7 °F /  -22.1 °C -8.8 °F /  -22.7 °C 1036.1 in /  35082.3 hPa Calm     92 % 0.0 in /  0 mm
06:47 -7.9 °F /  -22.2 °C -9.0 °F /  -22.8 °C 1036.1 in /  35082.3 hPa Calm     92 % 0.0 in /  0 mm
06:52 -7.9 °F /  -22.2 °C -9.0 °F /  -22.8 °C 1036.1 in /  35082.3 hPa Calm     92 % 0.0 in /  0 mm
07:02 -7.9 °F /  -22.2 °C -8.8 °F /  -22.7 °C 1036.5 in /  35095.9 hPa Calm     93 % 0.0 in /  0 mm
07:12 -7.7 °F /  -22.1 °C -8.6 °F /  -22.6 °C 1036.5 in /  35095.9 hPa Calm     93 % 0.0 in /  0 mm
07:17 -7.6 °F /  -22 °C -8.5 °F /  -22.5 °C 1036.5 in /  35095.9 hPa Calm     93 % 0.0 in /  0 mm
07:22 -7.7 °F /  -22.1 °C -8.8 °F /  -22.7 °C 1036.5 in /  35095.9 hPa Calm     92 % 0.0 in /  0 mm
07:27 -7.8 °F /  -22.1 °C -8.7 °F /  -22.6 °C 1036.5 in /  35095.9 hPa Calm     93 % 0.0 in /  0 mm
07:32 -7.7 °F /  -22.1 °C -8.6 °F /  -22.6 °C 1036.5 in /  35095.9 hPa Calm     93 % 0.0 in /  0 mm
07:37 -7.7 °F /  -22.1 °C -8.6 °F /  -22.6 °C 1036.5 in /  35095.9 hPa Calm     93 % 0.0 in /  0 mm
07:42 -7.8 °F /  -22.1 °C -8.9 °F /  -22.7 °C 1036.5 in /  35095.9 hPa Calm     92 % 0.0 in /  0 mm
07:47 -7.7 °F /  -22.1 °C -8.6 °F /  -22.6 °C 1036.5 in /  35095.9 hPa Calm     93 % 0.0 in /  0 mm
07:52 -7.9 °F /  -22.2 °C -9.0 °F /  -22.8 °C 1036.5 in /  35095.9 hPa Calm     92 % 0.0 in /  0 mm
07:57 -8.0 °F /  -22.2 °C -9.1 °F /  -22.8 °C 1036.5 in /  35095.9 hPa Calm     92 % 0.0 in /  0 mm
08:02 -8.0 °F /  -22.2 °C -8.9 °F /  -22.7 °C 1036.8 in /  35106 hPa Calm     93 % 0.0 in /  0 mm
08:07 -7.9 °F /  -22.2 °C -8.8 °F /  -22.7 °C 1036.5 in /  35095.9 hPa Calm     93 % 0.0 in /  0 mm
08:12 -7.9 °F /  -22.2 °C -8.8 °F /  -22.7 °C 1036.8 in /  35106 hPa North 1.6 mph /  2.6 km/h   93 % 0.0 in /  0 mm
08:17 -7.8 °F /  -22.1 °C -8.7 °F /  -22.6 °C 1036.8 in /  35106 hPa Calm   1.6 mph /  2.6 km/h 93 % 0.0 in /  0 mm
08:22 -7.6 °F /  -22 °C -8.5 °F /  -22.5 °C 1036.8 in /  35106 hPa Calm   1.6 mph /  2.6 km/h 93 % 0.0 in /  0 mm
08:27 -7.7 °F /  -22.1 °C -8.8 °F /  -22.7 °C 1036.8 in /  35106 hPa Calm   1.6 mph /  2.6 km/h 92 % 0.0 in /  0 mm
08:32 -7.9 °F /  -22.2 °C -9.0 °F /  -22.8 °C 1036.8 in /  35106 hPa Calm   1.6 mph /  2.6 km/h 92 % 0.0 in /  0 mm
08:37 -8.1 °F /  -22.3 °C -9.2 °F /  -22.9 °C 1036.8 in /  35106 hPa Calm   1.6 mph /  2.6 km/h 92 % 0.0 in /  0 mm
08:42 -8.2 °F /  -22.3 °C -9.3 °F /  -22.9 °C 1037.1 in /  35116.2 hPa Calm   1.6 mph /  2.6 km/h 92 % 0.0 in /  0 mm
08:47 -8.1 °F /  -22.3 °C -9.0 °F /  -22.8 °C 1037.1 in /  35116.2 hPa Calm     93 % 0.0 in /  0 mm
08:52 -8.1 °F /  -22.3 °C -9.0 °F /  -22.8 °C 1037.1 in /  35116.2 hPa Calm     93 % 0.0 in /  0 mm
08:57 -8.1 °F /  -22.3 °C -9.0 °F /  -22.8 °C 1036.8 in /  35106 hPa Calm     93 % 0.0 in /  0 mm
09:02 -8.1 °F /  -22.3 °C -9.0 °F /  -22.8 °C 1036.8 in /  35106 hPa Calm     93 % 0.0 in /  0 mm
09:07 -8.0 °F /  -22.2 °C -8.9 °F /  -22.7 °C 1036.8 in /  35106 hPa Calm     93 % 0.0 in /  0 mm
09:12 -7.8 °F /  -22.1 °C -8.7 °F /  -22.6 °C 1036.8 in /  35106 hPa Calm     93 % 0.0 in /  0 mm
09:17 -7.4 °F /  -21.9 °C -8.3 °F /  -22.4 °C 1036.8 in /  35106 hPa Calm     93 % 0.0 in /  0 mm
09:22 -7.0 °F /  -21.7 °C -7.9 °F /  -22.2 °C 1037.1 in /  35116.2 hPa Calm     93 % 0.0 in /  0 mm
09:32 -6.8 °F /  -21.6 °C -7.9 °F /  -22.2 °C 1037.1 in /  35116.2 hPa Calm     92 % 0.0 in /  0 mm
09:37 -6.4 °F /  -21.3 °C -7.5 °F /  -21.9 °C 1037.1 in /  35116.2 hPa Calm     92 % 0.0 in /  0 mm
09:42 -5.8 °F /  -21 °C -6.9 °F /  -21.6 °C 1037.1 in /  35116.2 hPa Calm     92 % 0.0 in /  0 mm
09:47 -5.8 °F /  -21 °C -7.2 °F /  -21.8 °C 1037.1 in /  35116.2 hPa Calm     90 % 0.0 in /  0 mm
09:52 -5.5 °F /  -20.8 °C -6.9 °F /  -21.6 °C 1037.1 in /  35116.2 hPa Calm     90 % 0.0 in /  0 mm
10:02 -5.4 °F /  -20.8 °C -7.2 °F /  -21.8 °C 1036.8 in /  35106 hPa Calm   1.6 mph /  2.6 km/h 87 % 0.0 in /  0 mm
10:07 -5.6 °F /  -20.9 °C -7.3 °F /  -21.8 °C 1036.8 in /  35106 hPa Calm   1.6 mph /  2.6 km/h 88 % 0.0 in /  0 mm
10:12 -5.4 °F /  -20.8 °C -6.9 °F /  -21.6 °C 1036.8 in /  35106 hPa Calm   1.6 mph /  2.6 km/h 89 % 0.0 in /  0 mm
10:17 -5.1 °F /  -20.6 °C -6.5 °F /  -21.4 °C 1036.8 in /  35106 hPa Calm   1.6 mph /  2.6 km/h 90 % 0.0 in /  0 mm
10:27 -4.0 °F /  -20 °C -6.0 °F /  -21.1 °C 1036.8 in /  35106 hPa Calm     86 % 0.0 in /  0 mm
10:32 -3.7 °F /  -19.8 °C -5.9 °F /  -21.1 °C 1037.1 in /  35116.2 hPa Calm     85 % 0.0 in /  0 mm
10:37 -3.2 °F /  -19.6 °C -5.2 °F /  -20.7 °C 1037.1 in /  35116.2 hPa Calm     86 % 0.0 in /  0 mm
10:42 -3.1 °F /  -19.5 °C -5.4 °F /  -20.8 °C 1036.8 in /  35106 hPa Calm     84 % 0.0 in /  0 mm
10:52 -2.6 °F /  -19.2 °C -5.2 °F /  -20.7 °C 1037.1 in /  35116.2 hPa Calm     82 % 0.0 in /  0 mm
10:57 -2.6 °F /  -19.2 °C -5.6 °F /  -20.9 °C 1037.1 in /  35116.2 hPa Calm     80 % 0.0 in /  0 mm
11:02 -3.1 °F /  -19.5 °C -5.9 °F /  -21.1 °C 1037.1 in /  35116.2 hPa Calm   1.6 mph /  2.6 km/h 81 % 0.0 in /  0 mm
11:12 -3.1 °F /  -19.5 °C -5.7 °F /  -20.9 °C 1036.8 in /  35106 hPa Calm   1.6 mph /  2.6 km/h 82 % 0.0 in /  0 mm
11:22 -2.9 °F /  -19.4 °C -5.1 °F /  -20.6 °C 1036.8 in /  35106 hPa Calm   3.2 mph /  5.1 km/h 85 % 0.0 in /  0 mm
11:27 -2.8 °F /  -19.3 °C -5.0 °F /  -20.6 °C 1036.5 in /  35095.9 hPa Calm   3.2 mph /  5.1 km/h 85 % 0.0 in /  0 mm
11:37 -2.6 °F /  -19.2 °C -5.1 °F /  -20.6 °C 1036.5 in /  35095.9 hPa SSE 1.6 mph /  2.6 km/h 3.2 mph /  5.1 km/h 83 % 0.0 in /  0 mm
11:42 -2.4 °F /  -19.1 °C -4.9 °F /  -20.5 °C 1036.5 in /  35095.9 hPa South 4.8 mph /  7.7 km/h 4.8 mph /  7.7 km/h 83 % 0.0 in /  0 mm
11:47 -2.3 °F /  -19.1 °C -5.0 °F /  -20.6 °C 1036.5 in /  35095.9 hPa South 3.2 mph /  5.1 km/h 6.4 mph /  10.3 km/h 82 % 0.0 in /  0 mm
11:57 -2.2 °F /  -19 °C -4.9 °F /  -20.5 °C 1036.5 in /  35095.9 hPa Calm   6.4 mph /  10.3 km/h 82 % 0.0 in /  0 mm
12:02 -1.9 °F /  -18.8 °C -4.6 °F /  -20.3 °C 1036.5 in /  35095.9 hPa SSW 1.6 mph /  2.6 km/h 4.8 mph /  7.7 km/h 82 % 0.0 in /  0 mm
12:07 -1.7 °F /  -18.7 °C -4.5 °F /  -20.3 °C 1036.5 in /  35095.9 hPa Calm   4.8 mph /  7.7 km/h 81 % 0.0 in /  0 mm
12:17 -1.7 °F /  -18.7 °C -4.7 °F /  -20.4 °C 1036.5 in /  35095.9 hPa SSE 1.6 mph /  2.6 km/h 3.2 mph /  5.1 km/h 80 % 0.0 in /  0 mm
12:22 -1.8 °F /  -18.8 °C -5.0 °F /  -20.6 °C 1036.5 in /  35095.9 hPa SW 1.6 mph /  2.6 km/h 6.4 mph /  10.3 km/h 79 % 0.0 in /  0 mm
12:27 -1.8 °F /  -18.8 °C -4.6 °F /  -20.3 °C 1036.5 in /  35095.9 hPa SW 1.6 mph /  2.6 km/h 6.4 mph /  10.3 km/h 81 % 0.0 in /  0 mm
12:37 -1.7 °F /  -18.7 °C -4.7 °F /  -20.4 °C 1036.5 in /  35095.9 hPa South 1.6 mph /  2.6 km/h 4.8 mph /  7.7 km/h 80 % 0.0 in /  0 mm
12:47 -1.3 °F /  -18.5 °C -4.3 °F /  -20.2 °C 1036.5 in /  35095.9 hPa SSW 1.6 mph /  2.6 km/h 4.8 mph /  7.7 km/h 80 % 0.0 in /  0 mm
12:57 -1.2 °F /  -18.4 °C -4.7 °F /  -20.4 °C 1035.8 in /  35072.2 hPa SSW 4.8 mph /  7.7 km/h 6.4 mph /  10.3 km/h 77 % 0.0 in /  0 mm
13:02 -1.0 °F /  -18.3 °C -4.5 °F /  -20.3 °C 1035.8 in /  35072.2 hPa SSW 4.8 mph /  7.7 km/h 6.4 mph /  10.3 km/h 77 % 0.0 in /  0 mm
13:07 -1.0 °F /  -18.3 °C -4.5 °F /  -20.3 °C 1035.8 in /  35072.2 hPa SW 6.4 mph /  10.3 km/h 6.4 mph /  10.3 km/h 77 % 0.0 in /  0 mm
13:12 -0.9 °F /  -18.3 °C -4.4 °F /  -20.2 °C 1035.8 in /  35072.2 hPa SSW 3.2 mph /  5.1 km/h 6.4 mph /  10.3 km/h 77 % 0.0 in /  0 mm
13:17 -0.9 °F /  -18.3 °C -4.6 °F /  -20.3 °C 1036.1 in /  35082.3 hPa SSW 1.6 mph /  2.6 km/h 6.4 mph /  10.3 km/h 76 % 0.0 in /  0 mm
13:27 -0.6 °F /  -18.1 °C -4.3 °F /  -20.2 °C 1035.8 in /  35072.2 hPa SSW 1.6 mph /  2.6 km/h 4.8 mph /  7.7 km/h 76 % 0.0 in /  0 mm
13:32 -0.6 °F /  -18.1 °C -4.3 °F /  -20.2 °C 1035.4 in /  35058.6 hPa SSW 3.2 mph /  5.1 km/h 4.8 mph /  7.7 km/h 76 % 0.0 in /  0 mm
13:37 -0.4 °F /  -18 °C -3.9 °F /  -19.9 °C 1035.4 in /  35058.6 hPa SSE 1.6 mph /  2.6 km/h 4.8 mph /  7.7 km/h 77 % 0.0 in /  0 mm
13:42 -0.4 °F /  -18 °C -4.1 °F /  -20.1 °C 1035.8 in /  35072.2 hPa SSE 4.8 mph /  7.7 km/h 4.8 mph /  7.7 km/h 76 % 0.0 in /  0 mm
13:47 -0.4 °F /  -18 °C -4.3 °F /  -20.2 °C 1035.4 in /  35058.6 hPa SSE 3.2 mph /  5.1 km/h 4.8 mph /  7.7 km/h 75 % 0.0 in /  0 mm
13:52 -0.4 °F /  -18 °C -4.5 °F /  -20.3 °C 1035.4 in /  35058.6 hPa SSE 1.6 mph /  2.6 km/h 6.4 mph /  10.3 km/h 74 % 0.0 in /  0 mm
13:57 -0.2 °F /  -17.9 °C -4.6 °F /  -20.3 °C 1035.8 in /  35072.2 hPa South 3.2 mph /  5.1 km/h 6.4 mph /  10.3 km/h 72 % 0.0 in /  0 mm
14:02 -0.1 °F /  -17.8 °C -4.5 °F /  -20.3 °C 1035.4 in /  35058.6 hPa SW 3.2 mph /  5.1 km/h 6.4 mph /  10.3 km/h 72 % 0.0 in /  0 mm
14:07 -0.2 °F /  -17.9 °C -5.2 °F /  -20.7 °C 1035.8 in /  35072.2 hPa Calm   4.8 mph /  7.7 km/h 69 % 0.0 in /  0 mm
14:12 -0.1 °F /  -17.8 °C -4.9 °F /  -20.5 °C 1035.4 in /  35058.6 hPa Calm   4.8 mph /  7.7 km/h 70 % 0.0 in /  0 mm
14:17 -0.1 °F /  -17.8 °C -4.9 °F /  -20.5 °C 1035.4 in /  35058.6 hPa SW 1.6 mph /  2.6 km/h 4.8 mph /  7.7 km/h 70 % 0.0 in /  0 mm
14:22 0.1 °F /  -17.7 °C -4.7 °F /  -20.4 °C 1035.4 in /  35058.6 hPa SSW 1.6 mph /  2.6 km/h 3.2 mph /  5.1 km/h 70 % 0.0 in /  0 mm
14:32 0.0 °F /  -17.8 °C -4.4 °F /  -20.2 °C 1035.4 in /  35058.6 hPa SW 3.2 mph /  5.1 km/h 4.8 mph /  7.7 km/h 72 % 0.0 in /  0 mm
14:37 0.1 °F /  -17.7 °C -4.3 °F /  -20.2 °C 1035.4 in /  35058.6 hPa SSE 1.6 mph /  2.6 km/h 6.4 mph /  10.3 km/h 72 % 0.0 in /  0 mm
14:42 0.1 °F /  -17.7 °C -4.3 °F /  -20.2 °C 1035.1 in /  35048.5 hPa SSE 1.6 mph /  2.6 km/h 6.4 mph /  10.3 km/h 72 % 0.0 in /  0 mm
14:47 0.1 °F /  -17.7 °C -4.3 °F /  -20.2 °C 1035.1 in /  35048.5 hPa SW 3.2 mph /  5.1 km/h 6.4 mph /  10.3 km/h 72 % 0.0 in /  0 mm
14:57 0.2 °F /  -17.7 °C -3.9 °F /  -19.9 °C 1035.1 in /  35048.5 hPa SW 3.2 mph /  5.1 km/h 8.0 mph /  12.9 km/h 74 % 0.0 in /  0 mm
15:02 0.2 °F /  -17.7 °C -4.3 °F /  -20.2 °C 1035.1 in /  35048.5 hPa SSW 1.6 mph /  2.6 km/h 8.0 mph /  12.9 km/h 72 % 0.0 in /  0 mm
15:07 0.2 °F /  -17.7 °C -4.4 °F /  -20.2 °C 1034.8 in /  35038.3 hPa SSW 3.2 mph /  5.1 km/h 8.0 mph /  12.9 km/h 71 % 0.0 in /  0 mm
15:12 0.2 °F /  -17.7 °C -4.4 °F /  -20.2 °C 1034.8 in /  35038.3 hPa South 4.8 mph /  7.7 km/h 8.0 mph /  12.9 km/h 71 % 0.0 in /  0 mm
15:22 0.2 °F /  -17.7 °C -4.1 °F /  -20.1 °C 1034.8 in /  35038.3 hPa SW 6.4 mph /  10.3 km/h 8.0 mph /  12.9 km/h 73 % 0.0 in /  0 mm
15:52 0.3 °F /  -17.6 °C -3.4 °F /  -19.7 °C 1035.1 in /  35048.5 hPa Calm   3.2 mph /  5.1 km/h 76 % 0.0 in /  0 mm
15:57 0.4 °F /  -17.6 °C -3.2 °F /  -19.6 °C 1035.1 in /  35048.5 hPa SSW 1.6 mph /  2.6 km/h 3.2 mph /  5.1 km/h 77 % 0.0 in /  0 mm
16:02 0.3 °F /  -17.6 °C -3.6 °F /  -19.8 °C 1035.1 in /  35048.5 hPa SSW 3.2 mph /  5.1 km/h 3.2 mph /  5.1 km/h 75 % 0.0 in /  0 mm
16:07 0.3 °F /  -17.6 °C -3.8 °F /  -19.9 °C 1035.1 in /  35048.5 hPa South 3.2 mph /  5.1 km/h 3.2 mph /  5.1 km/h 74 % 0.0 in /  0 mm
16:12 0.3 °F /  -17.6 °C -3.4 °F /  -19.7 °C 1035.1 in /  35048.5 hPa South 1.6 mph /  2.6 km/h 4.8 mph /  7.7 km/h 76 % 0.0 in /  0 mm
16:22 0.3 °F /  -17.6 °C -3.4 °F /  -19.7 °C 1035.1 in /  35048.5 hPa SSW 3.2 mph /  5.1 km/h 4.8 mph /  7.7 km/h 76 % 0.0 in /  0 mm
16:27 0.3 °F /  -17.6 °C -3.6 °F /  -19.8 °C 1035.1 in /  35048.5 hPa SSW 1.6 mph /  2.6 km/h 4.8 mph /  7.7 km/h 75 % 0.0 in /  0 mm
16:37 0.3 °F /  -17.6 °C -3.4 °F /  -19.7 °C 1035.1 in /  35048.5 hPa SSW 4.8 mph /  7.7 km/h 4.8 mph /  7.7 km/h 76 % 0.0 in /  0 mm
16:42 0.3 °F /  -17.6 °C -3.6 °F /  -19.8 °C 1034.8 in /  35038.3 hPa SW 4.8 mph /  7.7 km/h 6.4 mph /  10.3 km/h 75 % 0.0 in /  0 mm
16:52 0.3 °F /  -17.6 °C -3.4 °F /  -19.7 °C 1035.1 in /  35048.5 hPa SSW 3.2 mph /  5.1 km/h 6.4 mph /  10.3 km/h 76 % 0.0 in /  0 mm
16:57 0.2 °F /  -17.7 °C -3.7 °F /  -19.8 °C 1035.1 in /  35048.5 hPa SSW 3.2 mph /  5.1 km/h 6.4 mph /  10.3 km/h 75 % 0.0 in /  0 mm
17:02 0.2 °F /  -17.7 °C -3.4 °F /  -19.7 °C 1035.1 in /  35048.5 hPa South 1.6 mph /  2.6 km/h 6.4 mph /  10.3 km/h 77 % 0.0 in /  0 mm
17:07 0.2 °F /  -17.7 °C -3.4 °F /  -19.7 °C 1034.8 in /  35038.3 hPa SSW 1.6 mph /  2.6 km/h 6.4 mph /  10.3 km/h 77 % 0.0 in /  0 mm
17:12 0.1 °F /  -17.7 °C -3.1 °F /  -19.5 °C 1034.8 in /  35038.3 hPa SW 1.6 mph /  2.6 km/h 6.4 mph /  10.3 km/h 79 % 0.0 in /  0 mm
17:17 0.1 °F /  -17.7 °C -3.1 °F /  -19.5 °C 1035.1 in /  35048.5 hPa Calm   6.4 mph /  10.3 km/h 79 % 0.0 in /  0 mm
17:22 0.0 °F /  -17.8 °C -2.9 °F /  -19.4 °C 1034.8 in /  35038.3 hPa Calm   4.8 mph /  7.7 km/h 81 % 0.0 in /  0 mm
17:27 0.0 °F /  -17.8 °C -2.7 °F /  -19.3 °C 1034.8 in /  35038.3 hPa Calm   4.8 mph /  7.7 km/h 82 % 0.0 in /  0 mm
17:37 -0.1 °F /  -17.8 °C -2.8 °F /  -19.3 °C 1035.1 in /  35048.5 hPa Calm   1.6 mph /  2.6 km/h 82 % 0.0 in /  0 mm
17:47 -0.1 °F /  -17.8 °C -2.6 °F /  -19.2 °C 1035.1 in /  35048.5 hPa Calm   1.6 mph /  2.6 km/h 83 % 0.0 in /  0 mm
17:52 -0.1 °F /  -17.8 °C -2.8 °F /  -19.3 °C 1034.8 in /  35038.3 hPa Calm   1.6 mph /  2.6 km/h 82 % 0.0 in /  0 mm
18:02 -0.1 °F /  -17.8 °C -3.0 °F /  -19.4 °C 1034.8 in /  35038.3 hPa Calm   1.6 mph /  2.6 km/h 81 % 0.0 in /  0 mm
18:07 0.0 °F /  -17.8 °C -2.9 °F /  -19.4 °C 1034.8 in /  35038.3 hPa Calm   1.6 mph /  2.6 km/h 81 % 0.0 in /  0 mm
18:12 0.0 °F /  -17.8 °C -2.7 °F /  -19.3 °C 1034.8 in /  35038.3 hPa Calm   1.6 mph /  2.6 km/h 82 % 0.0 in /  0 mm
18:22 0.2 °F /  -17.7 °C -1.9 °F /  -18.8 °C 1034.8 in /  35038.3 hPa West 3.2 mph /  5.1 km/h 8.0 mph /  12.9 km/h 86 % 0.0 in /  0 mm
18:32 0.1 °F /  -17.7 °C -1.8 °F /  -18.8 °C 1034.8 in /  35038.3 hPa WSW 3.2 mph /  5.1 km/h 11.3 mph /  18.2 km/h 87 % 0.0 in /  0 mm
18:42 -0.3 °F /  -17.9 °C -1.7 °F /  -18.7 °C 1034.8 in /  35038.3 hPa SW 3.2 mph /  5.1 km/h 11.3 mph /  18.2 km/h 90 % 0.0 in /  0 mm
18:47 -0.4 °F /  -18 °C -1.5 °F /  -18.6 °C 1034.8 in /  35038.3 hPa West 4.8 mph /  7.7 km/h 8.0 mph /  12.9 km/h 92 % 0.0 in /  0 mm
18:57 -0.5 °F /  -18.1 °C -1.5 °F /  -18.6 °C 1034.8 in /  35038.3 hPa West 1.6 mph /  2.6 km/h 8.0 mph /  12.9 km/h 93 % 0.0 in /  0 mm
19:07 -0.6 °F /  -18.1 °C -1.6 °F /  -18.7 °C 1034.8 in /  35038.3 hPa West 1.6 mph /  2.6 km/h 6.4 mph /  10.3 km/h 93 % 0.0 in /  0 mm
19:12 -0.6 °F /  -18.1 °C -1.6 °F /  -18.7 °C 1034.8 in /  35038.3 hPa Calm   8.0 mph /  12.9 km/h 93 % 0.0 in /  0 mm
19:22 -0.7 °F /  -18.2 °C -1.7 °F /  -18.7 °C 1034.8 in /  35038.3 hPa WSW 1.6 mph /  2.6 km/h 6.4 mph /  10.3 km/h 93 % 0.0 in /  0 mm
19:27 -0.7 °F /  -18.2 °C -1.7 °F /  -18.7 °C 1034.8 in /  35038.3 hPa West 3.2 mph /  5.1 km/h 6.4 mph /  10.3 km/h 93 % 0.0 in /  0 mm
19:32 -0.6 °F /  -18.1 °C -1.6 °F /  -18.7 °C 1034.8 in /  35038.3 hPa WSW 1.6 mph /  2.6 km/h 6.4 mph /  10.3 km/h 93 % 0.0 in /  0 mm
19:37 -0.6 °F /  -18.1 °C -1.6 °F /  -18.7 °C 1034.8 in /  35038.3 hPa WSW 1.6 mph /  2.6 km/h 6.4 mph /  10.3 km/h 93 % 0.0 in /  0 mm
19:42 -0.6 °F /  -18.1 °C -1.7 °F /  -18.7 °C 1034.8 in /  35038.3 hPa SW 3.2 mph /  5.1 km/h 4.8 mph /  7.7 km/h 92 % 0.0 in /  0 mm
19:47 -0.6 °F /  -18.1 °C -1.7 °F /  -18.7 °C 1034.8 in /  35038.3 hPa WSW 1.6 mph /  2.6 km/h 4.8 mph /  7.7 km/h 92 % 0.0 in /  0 mm
19:57 -0.6 °F /  -18.1 °C -2.0 °F /  -18.9 °C 1034.8 in /  35038.3 hPa SSW 3.2 mph /  5.1 km/h 8.0 mph /  12.9 km/h 90 % 0.0 in /  0 mm
20:07 -0.4 °F /  -18 °C -2.0 °F /  -18.9 °C 1034.8 in /  35038.3 hPa SW 1.6 mph /  2.6 km/h 6.4 mph /  10.3 km/h 89 % 0.0 in /  0 mm
20:12 -0.4 °F /  -18 °C -2.1 °F /  -18.9 °C 1034.8 in /  35038.3 hPa SW 1.6 mph /  2.6 km/h 6.4 mph /  10.3 km/h 88 % 0.0 in /  0 mm
20:17 -0.4 °F /  -18 °C -2.1 °F /  -18.9 °C 1034.8 in /  35038.3 hPa SW 3.2 mph /  5.1 km/h 6.4 mph /  10.3 km/h 88 % 0.0 in /  0 mm
20:22 -0.4 °F /  -18 °C -2.3 °F /  -19.1 °C 1034.8 in /  35038.3 hPa SSW 1.6 mph /  2.6 km/h 4.8 mph /  7.7 km/h 87 % 0.0 in /  0 mm
20:27 -0.3 °F /  -17.9 °C -2.2 °F /  -19 °C 1034.8 in /  35038.3 hPa SW 1.6 mph /  2.6 km/h 4.8 mph /  7.7 km/h 87 % 0.0 in /  0 mm
20:37 -0.2 °F /  -17.9 °C -2.3 °F /  -19.1 °C 1034.8 in /  35038.3 hPa WSW 9.7 mph /  15.6 km/h 9.7 mph /  15.6 km/h 86 % 0.0 in /  0 mm
20:47 -0.1 °F /  -17.8 °C -2.2 °F /  -19 °C 1034.8 in /  35038.3 hPa SW 3.2 mph /  5.1 km/h 11.3 mph /  18.2 km/h 86 % 0.0 in /  0 mm
20:52 -0.2 °F /  -17.9 °C -2.1 °F /  -18.9 °C 1034.8 in /  35038.3 hPa SW 3.2 mph /  5.1 km/h 11.3 mph /  18.2 km/h 87 % 0.0 in /  0 mm
21:02 -0.2 °F /  -17.9 °C -2.1 °F /  -18.9 °C 1034.8 in /  35038.3 hPa WSW 6.4 mph /  10.3 km/h 11.3 mph /  18.2 km/h 87 % 0.0 in /  0 mm
21:12 -0.2 °F /  -17.9 °C -2.1 °F /  -18.9 °C 1034.4 in /  35024.8 hPa WSW 3.2 mph /  5.1 km/h 14.5 mph /  23.3 km/h 87 % 0.0 in /  0 mm
21:17 -0.2 °F /  -17.9 °C -2.1 °F /  -18.9 °C 1034.4 in /  35024.8 hPa West 9.7 mph /  15.6 km/h 12.9 mph /  20.8 km/h 87 % 0.0 in /  0 mm
21:22 -0.2 °F /  -17.9 °C -1.8 °F /  -18.8 °C 1034.4 in /  35024.8 hPa WSW 6.4 mph /  10.3 km/h 12.9 mph /  20.8 km/h 89 % 0.0 in /  0 mm
21:27 -0.2 °F /  -17.9 °C -1.6 °F /  -18.7 °C 1034.4 in /  35024.8 hPa WSW 1.6 mph /  2.6 km/h 11.3 mph /  18.2 km/h 90 % 0.0 in /  0 mm
21:32 -0.3 °F /  -17.9 °C -1.6 °F /  -18.7 °C 1034.4 in /  35024.8 hPa Calm   9.7 mph /  15.6 km/h 91 % 0.0 in /  0 mm
21:37 -0.3 °F /  -17.9 °C -1.6 °F /  -18.7 °C 1034.4 in /  35024.8 hPa SW 3.2 mph /  5.1 km/h 8.0 mph /  12.9 km/h 91 % 0.0 in /  0 mm
21:42 -0.3 °F /  -17.9 °C -1.6 °F /  -18.7 °C 1034.4 in /  35024.8 hPa Calm   6.4 mph /  10.3 km/h 91 % 0.0 in /  0 mm
21:47 -0.3 °F /  -17.9 °C -1.4 °F /  -18.6 °C 1034.4 in /  35024.8 hPa Calm   9.7 mph /  15.6 km/h 92 % 0.0 in /  0 mm
21:52 -0.3 °F /  -17.9 °C -1.4 °F /  -18.6 °C 1034.4 in /  35024.8 hPa West 3.2 mph /  5.1 km/h 9.7 mph /  15.6 km/h 92 % 0.0 in /  0 mm
21:57 -0.2 °F /  -17.9 °C -1.5 °F /  -18.6 °C 1034.4 in /  35024.8 hPa West 4.8 mph /  7.7 km/h 9.7 mph /  15.6 km/h 91 % 0.0 in /  0 mm
22:07 -0.2 °F /  -17.9 °C -1.5 °F /  -18.6 °C 1034.4 in /  35024.8 hPa WSW 3.2 mph /  5.1 km/h 8.0 mph /  12.9 km/h 91 % 0.0 in /  0 mm
22:12 -0.2 °F /  -17.9 °C -1.6 °F /  -18.7 °C 1034.4 in /  35024.8 hPa Calm   8.0 mph /  12.9 km/h 90 % 0.0 in /  0 mm
22:17 -0.2 °F /  -17.9 °C -1.6 °F /  -18.7 °C 1034.4 in /  35024.8 hPa WSW 3.2 mph /  5.1 km/h 6.4 mph /  10.3 km/h 90 % 0.0 in /  0 mm
22:22 -0.2 °F /  -17.9 °C -1.6 °F /  -18.7 °C 1034.4 in /  35024.8 hPa SW 1.6 mph /  2.6 km/h 8.0 mph /  12.9 km/h 90 % 0.0 in /  0 mm
22:32 -0.3 °F /  -17.9 °C -1.7 °F /  -18.7 °C 1034.4 in /  35024.8 hPa Calm   8.0 mph /  12.9 km/h 90 % 0.0 in /  0 mm
22:37 -0.3 °F /  -17.9 °C -1.6 °F /  -18.7 °C 1034.4 in /  35024.8 hPa West 1.6 mph /  2.6 km/h 4.8 mph /  7.7 km/h 91 % 0.0 in /  0 mm
22:47 -0.4 °F /  -18 °C -1.5 °F /  -18.6 °C 1034.4 in /  35024.8 hPa WSW 1.6 mph /  2.6 km/h 6.4 mph /  10.3 km/h 92 % 0.0 in /  0 mm
22:52 -0.4 °F /  -18 °C -1.4 °F /  -18.6 °C 1034.4 in /  35024.8 hPa WSW 4.8 mph /  7.7 km/h 6.4 mph /  10.3 km/h 93 % 0.0 in /  0 mm
22:57 -0.5 °F /  -18.1 °C -1.5 °F /  -18.6 °C 1034.4 in /  35024.8 hPa WSW 1.6 mph /  2.6 km/h 9.7 mph /  15.6 km/h 93 % 0.0 in /  0 mm
23:07 -0.6 °F /  -18.1 °C -1.4 °F /  -18.6 °C 1033.7 in /  35001.1 hPa SSW 6.4 mph /  10.3 km/h 9.7 mph /  15.6 km/h 94 % 0.0 in /  0 mm
23:12 -0.6 °F /  -18.1 °C -1.3 °F /  -18.5 °C 1034.1 in /  35014.6 hPa WSW 3.2 mph /  5.1 km/h 9.7 mph /  15.6 km/h 95 % 0.0 in /  0 mm
23:17 -0.6 °F /  -18.1 °C -1.3 °F /  -18.5 °C 1034.1 in /  35014.6 hPa WSW 3.2 mph /  5.1 km/h 9.7 mph /  15.6 km/h 95 % 0.0 in /  0 mm
23:27 -0.6 °F /  -18.1 °C -1.3 °F /  -18.5 °C 1034.1 in /  35014.6 hPa Calm   8.0 mph /  12.9 km/h 95 % 0.0 in /  0 mm
23:32 -0.5 °F /  -18.1 °C -1.2 °F /  -18.4 °C 1034.1 in /  35014.6 hPa WSW 1.6 mph /  2.6 km/h 4.8 mph /  7.7 km/h 95 % 0.0 in /  0 mm
23:37 -0.4 °F /  -18 °C -1.1 °F /  -18.4 °C 1034.1 in /  35014.6 hPa Calm   4.8 mph /  7.7 km/h 95 % 0.0 in /  0 mm
23:42 -0.4 °F /  -18 °C -1.1 °F /  -18.4 °C 1034.1 in /  35014.6 hPa SW 3.2 mph /  5.1 km/h 4.8 mph /  7.7 km/h 95 % 0.0 in /  0 mm
23:52 -0.3 °F /  -17.9 °C -1.0 °F /  -18.3 °C 1034.1 in /  35014.6 hPa Calm   3.2 mph /  5.1 km/h 95 % 0.0 in /  0 mm
Meteo18
Compliments of Weather Underground - 4 mb

Script developed by  Jim McMurry - jmcmurry@mwt.net Adapted for the template by  Wim van der Kuil - Leuven-Template.eu

You find our weather info also at:

European Weather Network

Weather Underground

Equipment we use:

Weather-station
Davis Vue

Weather-program
Meteobridge

Weather-server
Raspberry PI 2 B+

Provider
1 and 1

Davis Vue

Meteobridge

Raspberry PI 2 B+

1 and 1